Time;durP1;ratioP1;P1;durP2;ratioP2;P2;SDS_P1;SDS_P2;PMS_P1;PMS_P2;Temp;Humidity;BMP_temperature;BMP_pressure;BME280_temperature;BME280_humidity;BME280_pressure;Samples;Min_cycle;Max_cycle;Signal;HPM_P1;HPM_P2
2021/01/09 00:00:58;;;;;;;0.82;0.30;;;;;;;-144.01;100.00;62166.59;5056194;28;20056;-45
2021/01/09 00:03:26;;;;;;;1.85;0.30;;;;;;;-144.01;100.00;62166.59;5056681;28;20053;-44
2021/01/09 00:05:53;;;;;;;0.73;0.32;;;;;;;-144.01;100.00;62166.59;5056667;28;20355;-57
2021/01/09 00:08:21;;;;;;;1.77;0.20;;;;;;;-144.01;100.00;62166.59;5056560;28;20056;-45
2021/01/09 00:10:49;;;;;;;2.03;0.40;;;;;;;-144.01;100.00;62166.59;5056212;28;20049;-44
2021/01/09 00:13:16;;;;;;;0.65;0.32;;;;;;;-144.01;100.00;62166.59;5055811;28;20056;-46
2021/01/09 00:15:43;;;;;;;0.85;0.40;;;;;;;-144.01;100.00;62166.59;5056181;28;20057;-44
2021/01/09 00:18:10;;;;;;;1.73;0.60;;;;;;;-144.01;100.00;62166.59;5056044;28;20383;-44
2021/01/09 00:20:37;;;;;;;1.23;0.60;;;;;;;-144.01;100.00;62166.59;5055277;28;20056;-43
2021/01/09 00:23:05;;;;;;;0.70;0.22;;;;;;;-144.01;100.00;62166.59;5055322;28;20737;-45
2021/01/09 00:25:32;;;;;;;0.65;0.35;;;;;;;-144.01;100.00;62166.59;5055725;28;20048;-45
2021/01/09 00:27:59;;;;;;;0.60;0.20;;;;;;;-144.01;100.00;62166.59;5038423;28;20057;-44
2021/01/09 00:30:26;;;;;;;0.90;0.32;;;;;;;-144.01;100.00;62166.59;5042429;28;20059;-44
2021/01/09 00:32:53;;;;;;;0.65;0.28;;;;;;;-144.01;100.00;62166.59;5039851;28;20052;-44
2021/01/09 00:35:21;;;;;;;0.57;0.30;;;;;;;-144.01;100.00;62166.59;5036015;28;20056;-45
2021/01/09 00:37:48;;;;;;;0.55;0.30;;;;;;;-144.01;100.00;62166.59;5040364;28;20371;-45
2021/01/09 00:40:15;;;;;;;1.00;0.30;;;;;;;-144.01;100.00;62166.59;5055664;28;20136;-45
2021/01/09 00:42:47;;;;;;;0.65;0.20;;;;;;;-144.01;100.00;62166.59;5056073;28;20052;-45
2021/01/09 00:45:15;;;;;;;0.60;0.37;;;;;;;-144.01;100.00;62166.59;5055681;28;20048;-45
2021/01/09 00:47:42;;;;;;;0.70;0.47;;;;;;;-144.01;100.00;62166.59;5055918;28;20290;-44
2021/01/09 00:50:10;;;;;;;0.80;0.30;;;;;;;-144.01;100.00;62166.59;5055396;28;20203;-45
2021/01/09 00:52:37;;;;;;;0.50;0.30;;;;;;;-144.01;100.00;62166.59;5055380;28;20044;-44
2021/01/09 00:55:04;;;;;;;0.80;0.43;;;;;;;-144.01;100.00;62166.59;5055604;28;20061;-45
2021/01/09 00:57:31;;;;;;;0.80;0.40;;;;;;;-144.01;100.00;62166.59;5055531;28;20072;-43
2021/01/09 00:59:58;;;;;;;1.15;0.50;;;;;;;-144.01;100.00;62166.59;5055227;28;20051;-45
2021/01/09 01:02:25;;;;;;;0.60;0.40;;;;;;;-144.01;100.00;62166.59;5047953;28;20511;-44
2021/01/09 01:04:52;;;;;;;0.50;0.30;;;;;;;-144.01;100.00;62166.59;5035459;28;20384;-45
2021/01/09 01:07:20;;;;;;;1.38;0.55;;;;;;;-144.01;100.00;62166.59;5035580;28;20057;-44
2021/01/09 01:09:47;;;;;;;0.90;0.50;;;;;;;-144.01;100.00;62166.59;5035575;28;20049;-44
2021/01/09 01:12:14;;;;;;;1.52;0.50;;;;;;;-144.01;100.00;62166.59;5055177;28;20051;-44
2021/01/09 01:14:41;;;;;;;1.90;0.63;;;;;;;-144.01;100.00;62166.59;5055190;28;20367;-44
2021/01/09 01:17:08;;;;;;;1.67;0.60;;;;;;;-144.01;100.00;62166.59;5055311;28;20052;-46
2021/01/09 01:19:35;;;;;;;0.90;0.40;;;;;;;-144.01;100.00;62166.59;5054953;28;20041;-45
2021/01/09 01:22:02;;;;;;;1.13;0.50;;;;;;;-144.01;100.00;62166.59;5054418;28;20063;-45
2021/01/09 01:24:29;;;;;;;1.45;0.43;;;;;;;-144.01;100.00;62166.59;5055308;28;20341;-44
2021/01/09 01:26:56;;;;;;;0.50;0.30;;;;;;;-144.01;100.00;62166.59;5054818;28;20053;-43
2021/01/09 01:29:24;;;;;;;1.25;0.30;;;;;;;-144.01;100.00;62166.59;5054902;28;20052;-45
2021/01/09 01:31:51;;;;;;;0.82;0.20;;;;;;;-144.01;100.00;62166.59;5054182;28;20040;-45
2021/01/09 01:34:18;;;;;;;0.43;0.22;;;;;;;-144.01;100.00;62166.59;5054843;28;20052;-46
2021/01/09 01:36:48;;;;;;;0.30;0.20;;;;;;;-144.01;100.00;62166.59;5054980;28;20475;-44
2021/01/09 01:39:16;;;;;;;0.90;0.50;;;;;;;-144.01;100.00;62166.59;5054684;28;20056;-46
2021/01/09 01:41:43;;;;;;;0.68;0.30;;;;;;;-144.01;100.00;62166.59;5054551;28;20049;-45
2021/01/09 01:44:10;;;;;;;0.57;0.30;;;;;;;-144.01;100.00;62166.59;5054816;28;20064;-45
2021/01/09 01:46:38;;;;;;;0.50;0.30;;;;;;;-144.01;100.00;62166.59;5054683;28;20052;-45
2021/01/09 01:49:08;;;;;;;0.52;0.20;;;;;;;-144.01;100.00;62166.59;5054511;28;20049;-45
2021/01/09 01:51:35;;;;;;;0.52;0.30;;;;;;;-144.01;100.00;62166.59;5054016;28;20549;-45
2021/01/09 01:54:02;;;;;;;0.65;0.40;;;;;;;-144.01;100.00;62166.59;5054395;28;20439;-46
2021/01/09 01:56:30;;;;;;;0.52;0.20;;;;;;;-144.01;100.00;62166.59;5054437;28;20460;-45
2021/01/09 01:58:57;;;;;;;1.05;0.30;;;;;;;-144.01;100.00;62166.59;5054330;28;20045;-45
2021/01/09 02:01:25;;;;;;;0.85;0.32;;;;;;;-144.01;100.00;62166.59;5054159;28;20045;-45
2021/01/09 02:03:53;;;;;;;0.63;0.30;;;;;;;-144.01;100.00;62166.59;5054312;28;20048;-45
2021/01/09 02:06:24;;;;;;;0.60;0.40;;;;;;;-144.01;100.00;62166.59;5054431;28;20049;-44
2021/01/09 02:09:11;;;;;;;0.82;0.47;;;;;;;-144.01;100.00;62166.59;5054030;28;20051;-45
2021/01/09 02:11:47;;;;;;;1.30;0.45;;;;;;;-144.01;100.00;62166.59;5054017;28;20049;-45
2021/01/09 02:14:39;;;;;;;2.33;0.85;;;;;;;-144.01;100.00;62166.59;5053880;28;20052;-45
2021/01/09 02:17:07;;;;;;;1.20;0.60;;;;;;;-144.01;100.00;62166.59;5040858;28;20053;-44
2021/01/09 02:19:39;;;;;;;1.20;0.70;;;;;;;-144.01;100.00;62166.59;5034073;28;20064;-45
2021/01/09 02:22:10;;;;;;;1.02;0.60;;;;;;;-144.01;100.00;62166.59;5051021;28;20064;-45
2021/01/09 02:24:37;;;;;;;0.77;0.45;;;;;;;-144.01;100.00;62166.59;5034132;28;20057;-46
2021/01/09 02:27:06;;;;;;;1.27;0.80;;;;;;;-144.01;100.00;62166.59;5034192;28;20474;-49
2021/01/09 02:29:47;;;;;;;1.13;0.65;;;;;;;-144.01;100.00;62166.59;5033691;28;20463;-46
2021/01/09 02:32:17;;;;;;;0.98;0.60;;;;;;;-144.01;100.00;62166.59;5051989;28;20398;-48
2021/01/09 02:34:54;;;;;;;0.90;0.60;;;;;;;-144.01;100.00;62166.59;5053710;28;20053;-47
2021/01/09 02:37:23;;;;;;;0.75;0.45;;;;;;;-144.01;100.00;62166.59;5069555;28;20495;-45
2021/01/09 02:39:50;;;;;;;0.70;0.40;;;;;;;-144.01;100.00;62166.59;5053898;28;20383;-66
2021/01/09 02:42:19;;;;;;;1.05;0.57;;;;;;;-144.01;100.00;62166.59;5053172;28;20048;-46
2021/01/09 02:44:50;;;;;;;1.27;0.68;;;;;;;-144.01;100.00;62166.59;5053371;28;20049;-46
2021/01/09 02:47:18;;;;;;;0.80;0.40;;;;;;;-144.01;100.00;62166.59;5052770;28;20049;-45
2021/01/09 02:49:45;;;;;;;0.90;0.50;;;;;;;-144.01;100.00;62166.59;5053506;28;20052;-46
2021/01/09 02:52:12;;;;;;;2.58;0.55;;;;;;;-144.01;100.00;62166.59;5053027;28;20391;-44
2021/01/09 02:54:39;;;;;;;0.95;0.40;;;;;;;-144.01;100.00;62166.59;5053614;28;20057;-45
2021/01/09 02:57:07;;;;;;;1.30;0.57;;;;;;;-144.01;100.00;62166.59;5053598;28;20053;-44
2021/01/09 02:59:34;;;;;;;1.05;0.60;;;;;;;-144.01;100.00;62166.59;5053615;28;20056;-46
2021/01/09 03:02:02;;;;;;;1.58;0.50;;;;;;;-144.01;100.00;62166.59;5053365;28;20051;-45
2021/01/09 03:04:29;;;;;;;1.20;0.70;;;;;;;-144.01;100.00;62166.59;5053649;28;20049;-45
2021/01/09 03:06:56;;;;;;;1.30;0.75;;;;;;;-144.01;100.00;62166.59;5053680;28;20044;-66
2021/01/09 03:09:23;;;;;;;1.60;0.82;;;;;;;-144.01;100.00;62166.59;5053551;28;20045;-45
2021/01/09 03:11:50;;;;;;;1.58;0.88;;;;;;;-144.01;100.00;62166.59;5053222;28;20067;-46
2021/01/09 03:14:17;;;;;;;1.80;1.10;;;;;;;-144.01;100.00;62166.59;5053471;28;20056;-66
2021/01/09 03:16:44;;;;;;;1.95;1.15;;;;;;;-144.01;100.00;62166.59;5053243;28;20052;-46
2021/01/09 03:19:11;;;;;;;1.73;1.17;;;;;;;-144.01;100.00;62166.59;5053239;28;20079;-45
2021/01/09 03:21:38;;;;;;;3.15;0.95;;;;;;;-144.01;100.00;62166.59;5067183;28;20455;-48
2021/01/09 03:24:06;;;;;;;1.77;1.27;;;;;;;-144.01;100.00;62166.59;5053649;28;20060;-44
2021/01/09 03:26:33;;;;;;;2.00;1.30;;;;;;;-144.01;100.00;62166.59;5053455;28;20040;-45
2021/01/09 03:29:00;;;;;;;1.75;1.13;;;;;;;-144.01;100.00;62166.59;5053234;28;20053;-45
2021/01/09 03:31:28;;;;;;;1.60;1.02;;;;;;;-144.01;100.00;62166.59;5052967;28;20056;-45
2021/01/09 03:33:55;;;;;;;1.38;0.85;;;;;;;-144.01;100.00;62166.59;5053314;28;20374;-45
2021/01/09 03:36:22;;;;;;;1.25;0.90;;;;;;;-144.01;100.00;62166.59;5053258;28;20059;-53
2021/01/09 03:38:50;;;;;;;2.28;0.80;;;;;;;-144.01;100.00;62166.59;5053244;28;20060;-45
2021/01/09 03:41:17;;;;;;;1.10;0.73;;;;;;;-144.01;100.00;62166.59;5052945;28;20049;-44
2021/01/09 03:43:44;;;;;;;1.27;0.80;;;;;;;-144.01;100.00;62166.59;5053305;28;20053;-46
2021/01/09 03:46:11;;;;;;;1.42;0.82;;;;;;;-144.01;100.00;62166.59;5053256;28;20049;-46
2021/01/09 03:48:38;;;;;;;1.05;0.70;;;;;;;-144.01;100.00;62166.59;5053296;28;20049;-44
2021/01/09 03:51:06;;;;;;;1.30;0.90;;;;;;;-144.01;100.00;62166.59;5052714;28;20045;-46
2021/01/09 03:53:33;;;;;;;1.85;0.90;;;;;;;-144.01;100.00;62166.59;5052971;28;20060;-65
2021/01/09 03:56:02;;;;;;;2.95;1.10;;;;;;;-144.01;100.00;62166.59;5056590;28;20053;-46
2021/01/09 03:58:29;;;;;;;1.60;0.90;;;;;;;-144.01;100.00;62166.59;5056889;28;20462;-45
2021/01/09 04:00:56;;;;;;;1.65;1.00;;;;;;;-144.01;100.00;62166.59;5056284;28;20044;-45
2021/01/09 04:03:24;;;;;;;1.48;1.08;;;;;;;-144.01;100.00;62166.59;5056662;28;20048;-46
2021/01/09 04:05:51;;;;;;;1.25;0.70;;;;;;;-144.01;100.00;62166.59;5056558;28;20049;-45
2021/01/09 04:08:18;;;;;;;1.30;0.80;;;;;;;-144.01;100.00;62166.59;5056527;28;20128;-45
2021/01/09 04:10:45;;;;;;;1.73;0.70;;;;;;;-144.01;100.00;62166.59;5056109;28;20053;-67
2021/01/09 04:13:12;;;;;;;1.10;0.70;;;;;;;-144.01;100.00;62166.59;5056318;28;20439;-44
2021/01/09 04:15:39;;;;;;;1.40;0.80;;;;;;;-144.01;100.00;62166.59;5056170;28;20055;-45
2021/01/09 04:18:06;;;;;;;1.25;0.70;;;;;;;-144.01;100.00;62166.59;5056246;28;20052;-46
2021/01/09 04:20:34;;;;;;;1.30;0.68;;;;;;;-144.01;100.00;62166.59;5055796;28;20049;-44
2021/01/09 04:23:01;;;;;;;1.63;0.50;;;;;;;-144.01;100.00;62166.59;5055990;28;20057;-45
2021/01/09 04:25:29;;;;;;;1.10;0.68;;;;;;;-144.01;100.00;62166.59;5055933;28;20049;-44
2021/01/09 04:27:56;;;;;;;0.90;0.60;;;;;;;-144.01;100.00;62166.59;5056105;28;20478;-45
2021/01/09 04:30:23;;;;;;;2.25;0.63;;;;;;;-144.01;100.00;62166.59;5055867;28;20056;-52
2021/01/09 04:32:50;;;;;;;1.27;0.60;;;;;;;-144.01;100.00;62166.59;5055506;28;20068;-45
2021/01/09 04:35:18;;;;;;;0.95;0.50;;;;;;;-144.01;100.00;62166.59;5056190;28;20055;-59
2021/01/09 04:37:45;;;;;;;2.20;0.73;;;;;;;-144.01;100.00;62166.59;5055457;28;20052;-46
2021/01/09 04:40:12;;;;;;;1.58;0.85;;;;;;;-144.01;100.00;62166.59;5055291;28;20461;-45
2021/01/09 04:42:39;;;;;;;1.42;0.82;;;;;;;-144.01;100.00;62166.59;5055455;28;20056;-45
2021/01/09 04:45:07;;;;;;;2.55;0.95;;;;;;;-144.01;100.00;62166.59;5055675;28;20049;-56
2021/01/09 04:47:35;;;;;;;1.67;1.05;;;;;;;-144.01;100.00;62166.59;5055826;28;20518;-46
2021/01/09 04:50:03;;;;;;;1.60;0.80;;;;;;;-144.01;100.00;62166.59;5071236;28;20049;-45
2021/01/09 04:52:31;;;;;;;1.10;0.80;;;;;;;-144.01;100.00;62166.59;5055060;28;20059;-45
2021/01/09 04:54:59;;;;;;;1.55;0.90;;;;;;;-144.01;100.00;62166.59;5070994;28;20419;-45
2021/01/09 04:57:30;;;;;;;1.55;1.08;;;;;;;-144.01;100.00;62166.59;5053922;28;20049;-44
2021/01/09 04:59:58;;;;;;;1.70;1.02;;;;;;;-144.01;100.00;62166.59;5055288;28;20049;-45
2021/01/09 05:02:26;;;;;;;1.20;0.95;;;;;;;-144.01;100.00;62166.59;5055661;28;20041;-45
2021/01/09 05:04:54;;;;;;;1.25;0.95;;;;;;;-144.01;100.00;62166.59;5070975;28;20049;-50
2021/01/09 05:07:21;;;;;;;1.40;0.90;;;;;;;-144.01;100.00;62166.59;5054631;28;20049;-50
2021/01/09 05:09:48;;;;;;;1.10;0.85;;;;;;;-144.01;100.00;62166.59;5055662;28;20053;-46
2021/01/09 05:12:16;;;;;;;1.45;0.80;;;;;;;-144.01;100.00;62166.59;5070932;28;20040;-45
2021/01/09 05:14:43;;;;;;;1.30;0.80;;;;;;;-144.01;100.00;62166.59;5055358;28;20048;-44
2021/01/09 05:17:12;;;;;;;1.10;0.82;;;;;;;-144.01;100.00;62166.59;5070826;28;20068;-45
2021/01/09 05:19:41;;;;;;;1.65;1.00;;;;;;;-144.01;100.00;62166.59;5054933;28;20041;-46
2021/01/09 05:22:09;;;;;;;1.00;0.70;;;;;;;-144.01;100.00;62166.59;5057209;28;20053;-65
2021/01/09 05:24:36;;;;;;;1.40;0.90;;;;;;;-144.01;100.00;62166.59;5034891;28;20085;-45
2021/01/09 05:27:04;;;;;;;1.20;0.70;;;;;;;-144.01;100.00;62166.59;5035263;28;20464;-44
2021/01/09 05:29:32;;;;;;;2.55;0.90;;;;;;;-144.01;100.00;62166.59;5053253;28;20061;-44
2021/01/09 05:31:59;;;;;;;1.35;0.90;;;;;;;-144.01;100.00;62166.59;5036156;28;20053;-45
2021/01/09 05:34:26;;;;;;;1.20;0.80;;;;;;;-144.01;100.00;62166.59;5033948;28;20375;-44
2021/01/09 05:36:53;;;;;;;1.73;1.02;;;;;;;-144.01;100.00;62166.59;5033985;28;20057;-45
2021/01/09 05:39:20;;;;;;;1.73;1.13;;;;;;;-144.01;100.00;62166.59;5051084;28;20381;-45
2021/01/09 05:41:47;;;;;;;1.52;1.00;;;;;;;-144.01;100.00;62166.59;5054805;28;20049;-46
2021/01/09 05:44:14;;;;;;;1.27;0.90;;;;;;;-144.01;100.00;62166.59;5037175;28;20448;-45
2021/01/09 05:46:42;;;;;;;1.30;0.90;;;;;;;-144.01;100.00;62166.59;5054695;28;20387;-44
2021/01/09 05:49:10;;;;;;;1.33;0.90;;;;;;;-144.01;100.00;62166.59;5054373;28;20048;-49
2021/01/09 05:51:40;;;;;;;1.60;1.05;;;;;;;-144.01;100.00;62166.59;5054689;28;20057;-44
2021/01/09 05:54:10;;;;;;;2.08;1.25;;;;;;;-144.01;100.00;62166.59;5054766;28;20051;-45
2021/01/09 05:56:41;;;;;;;2.15;1.48;;;;;;;-144.01;100.00;62166.59;5053572;28;20052;-46
2021/01/09 05:59:10;;;;;;;2.28;1.60;;;;;;;-144.01;100.00;62166.59;5052966;28;20746;-66
2021/01/09 06:01:38;;;;;;;2.50;1.67;;;;;;;-144.01;100.00;62166.59;5054434;28;20388;-45
2021/01/09 06:04:16;;;;;;;2.28;1.60;;;;;;;-144.01;100.00;62166.59;5035711;28;20467;-45
2021/01/09 06:07:06;;;;;;;2.78;1.70;;;;;;;-144.01;100.00;62166.59;5016969;28;20045;-46
2021/01/09 06:09:36;;;;;;;2.70;2.05;;;;;;;-144.01;100.00;62166.59;5048727;28;20443;-45
2021/01/09 06:12:07;;;;;;;2.28;1.70;;;;;;;-144.01;100.00;62166.59;5017180;28;20372;-45
2021/01/09 06:14:36;;;;;;;2.70;1.88;;;;;;;-144.01;100.00;62166.59;5034245;28;20045;-44
2021/01/09 06:17:03;;;;;;;2.58;1.63;;;;;;;-144.01;100.00;62166.59;5034030;28;20053;-46
2021/01/09 06:19:31;;;;;;;2.00;1.42;;;;;;;-144.01;100.00;62166.59;5050597;28;20059;-45
2021/01/09 06:21:59;;;;;;;2.10;1.40;;;;;;;-144.01;100.00;62166.59;5053394;28;20045;-46
2021/01/09 06:24:26;;;;;;;2.45;1.50;;;;;;;-144.01;100.00;62166.59;5052457;28;20049;-46
2021/01/09 06:26:54;;;;;;;3.10;1.90;;;;;;;-144.01;100.00;62166.59;5054088;28;20344;-45
2021/01/09 06:29:23;;;;;;;2.45;1.80;;;;;;;-144.01;100.00;62166.59;5053475;28;20055;-48
2021/01/09 06:32:03;;;;;;;3.53;2.25;;;;;;;-144.01;100.00;62166.59;5053343;28;20045;-66
2021/01/09 06:34:35;;;;;;;3.10;1.75;;;;;;;-144.01;100.00;62166.59;5033973;28;20045;-47
2021/01/09 06:37:03;;;;;;;2.60;1.90;;;;;;;-144.01;100.00;62166.59;5048213;28;20052;-45
2021/01/09 06:39:38;;;;;;;3.22;2.17;;;;;;;-144.01;100.00;62166.59;5053410;28;20048;-55
2021/01/09 06:42:06;;;;;;;3.20;2.33;;;;;;;-144.01;100.00;62166.59;5053847;28;20051;-45
2021/01/09 06:44:34;;;;;;;3.08;1.92;;;;;;;-144.01;100.00;62166.59;5049898;28;20052;-46
2021/01/09 06:47:02;;;;;;;2.80;2.05;;;;;;;-144.01;100.00;62166.59;5016566;28;20041;-44
2021/01/09 06:49:29;;;;;;;2.60;2.00;;;;;;;-144.01;100.00;62166.59;5045070;28;20056;-43
2021/01/09 06:52:03;;;;;;;2.78;1.73;;;;;;;-144.01;100.00;62166.59;5040031;28;20489;-43
2021/01/09 06:54:39;;;;;;;3.70;1.80;;;;;;;-144.01;100.00;62166.59;5043047;28;20064;-44
2021/01/09 06:57:06;;;;;;;2.13;1.50;;;;;;;-144.01;100.00;62166.59;5042345;28;20049;-47
2021/01/09 06:59:40;;;;;;;2.15;1.60;;;;;;;-144.01;100.00;62166.59;5042664;28;20056;-45
2021/01/09 07:02:13;;;;;;;2.10;1.67;;;;;;;-144.01;100.00;62166.59;5042738;28;20353;-43
2021/01/09 07:05:02;;;;;;;3.80;2.45;;;;;;;-144.01;100.00;62166.59;5042085;28;20475;-44
2021/01/09 07:07:37;;;;;;;3.50;2.75;;;;;;;-144.01;100.00;62166.59;5042665;28;20046;-44
2021/01/09 07:10:14;;;;;;;4.22;3.53;;;;;;;-144.01;100.00;62166.59;5042185;28;20052;-45
2021/01/09 07:12:47;;;;;;;4.38;3.03;;;;;;;-144.01;100.00;62166.59;5042102;28;20121;-45
2021/01/09 07:15:17;;;;;;;6.20;2.70;;;;;;;-144.01;100.00;62166.59;5042661;28;20048;-44
2021/01/09 07:17:58;;;;;;;2.72;2.03;;;;;;;-144.01;100.00;62166.59;5042609;28;20049;-45
2021/01/09 07:20:47;;;;;;;2.60;2.10;;;;;;;-144.01;100.00;62166.59;5041883;28;20049;-45
2021/01/09 07:23:16;;;;;;;2.33;1.75;;;;;;;-144.01;100.00;62166.59;5043234;28;20054;-44
2021/01/09 07:25:47;;;;;;;3.28;1.80;;;;;;;-144.01;100.00;62166.59;5057530;28;20363;-44
2021/01/09 07:28:17;;;;;;;2.70;2.15;;;;;;;-144.01;100.00;62166.59;5043993;28;20348;-44
2021/01/09 07:30:44;;;;;;;2.25;1.63;;;;;;;-144.01;100.00;62166.59;5047208;28;20377;-45
2021/01/09 07:33:13;;;;;;;2.75;2.40;;;;;;;-144.01;100.00;62166.59;5046689;28;20053;-45
2021/01/09 07:35:46;;;;;;;2.88;2.15;;;;;;;-144.01;100.00;62166.59;5045664;28;20464;-44
2021/01/09 07:38:13;;;;;;;;;;;;;;;-144.01;100.00;62166.59;5048694;28;20063;-43
2021/01/09 07:41:01;;;;;;;2.35;2.08;;;;;;;-144.01;100.00;62166.59;5047541;28;19913;-45
2021/01/09 07:43:39;;;;;;;2.75;2.08;;;;;;;-144.01;100.00;62166.59;5046053;28;20368;-44
2021/01/09 07:46:25;;;;;;;3.72;2.10;;;;;;;-144.01;100.00;62166.59;5045950;28;20052;-45
2021/01/09 07:48:52;;;;;;;2.75;2.13;;;;;;;-144.01;100.00;62166.59;5046288;28;20053;-43
2021/01/09 07:51:40;;;;;;;2.67;2.05;;;;;;;-144.01;100.00;62166.59;5046899;28;20064;-43
2021/01/09 07:54:07;;;;;;;3.17;1.98;;;;;;;-144.01;100.00;62166.59;5045718;28;20057;-43
2021/01/09 07:56:35;;;;;;;2.90;2.20;;;;;;;-144.01;100.00;62166.59;5055569;28;20052;-46
2021/01/09 07:59:04;;;;;;;2.92;2.40;;;;;;;-144.01;100.00;62166.59;5056354;28;20392;-44
2021/01/09 08:01:42;;;;;;;3.00;2.17;;;;;;;-144.01;100.00;62166.59;5056773;28;20056;-45
2021/01/09 08:04:11;;;;;;;3.30;2.25;;;;;;;-144.01;100.00;62166.59;5040294;28;20049;-45
2021/01/09 08:06:41;;;;;;;2.72;2.05;;;;;;;-144.01;100.00;62166.59;5035819;28;20049;-44
2021/01/09 08:09:09;;;;;;;3.42;1.80;;;;;;;-144.01;100.00;62166.59;5049463;28;20049;-45
2021/01/09 08:11:43;;;;;;;2.45;1.90;;;;;;;-144.01;100.00;62166.59;5056626;28;20055;-48
2021/01/09 08:14:12;;;;;;;2.67;2.00;;;;;;;-144.01;100.00;62166.59;5056264;28;20052;-45
2021/01/09 08:16:40;;;;;;;2.25;1.80;;;;;;;-144.01;100.00;62166.59;5056082;28;20056;-44
2021/01/09 08:19:18;;;;;;;2.42;1.88;;;;;;;-144.01;100.00;62166.59;5055373;28;20049;-44
2021/01/09 08:21:52;;;;;;;2.10;1.77;;;;;;;-144.01;100.00;62166.59;5055593;28;20055;-45
2021/01/09 08:24:23;;;;;;;2.75;1.90;;;;;;;-144.01;100.00;62166.59;5056118;28;20056;-45
2021/01/09 08:26:55;;;;;;;5.90;2.45;;;;;;;-144.01;100.00;62166.59;5056086;28;20455;-44
2021/01/09 08:29:27;;;;;;;3.17;2.20;;;;;;;-144.01;100.00;62166.59;5055699;28;20049;-46
2021/01/09 08:31:55;;;;;;;3.55;2.65;;;;;;;-144.01;100.00;62166.59;5056009;28;20459;-47
2021/01/09 08:34:23;;;;;;;3.20;2.70;;;;;;;-144.01;100.00;62166.59;5071806;28;20060;-45
2021/01/09 08:36:54;;;;;;;5.18;3.50;;;;;;;-144.01;100.00;62166.59;5056121;28;20041;-45
2021/01/09 08:39:21;;;;;;;5.63;3.97;;;;;;;-144.01;100.00;62166.59;5055476;28;20041;-44
2021/01/09 08:41:48;;;;;;;7.65;5.78;;;;;;;-144.01;100.00;62166.59;5054756;28;20056;-46
2021/01/09 08:44:16;;;;;;;7.95;5.80;;;;;;;-144.01;100.00;62166.59;5055617;28;20060;-44
2021/01/09 08:46:44;;;;;;;7.82;5.45;;;;;;;-144.01;100.00;62166.59;5053110;28;20045;-50
2021/01/09 08:49:25;;;;;;;6.22;4.63;;;;;;;-144.01;100.00;62166.59;5046266;28;20522;-46
2021/01/09 08:52:10;;;;;;;6.68;4.22;;;;;;;-144.01;100.00;62166.59;5054454;28;20064;-50
2021/01/09 08:54:39;;;;;;;5.07;3.75;;;;;;;-144.01;100.00;62166.59;5051290;28;20053;-46
2021/01/09 08:57:07;;;;;;;4.05;3.53;;;;;;;-144.01;100.00;62166.59;5037851;28;20075;-48
2021/01/09 08:59:34;;;;;;;4.93;3.75;;;;;;;-144.01;100.00;62166.59;5037252;28;20051;-48
2021/01/09 09:02:04;;;;;;;5.10;3.45;;;;;;;-144.01;100.00;62166.59;5038038;28;20052;-51
2021/01/09 09:04:32;;;;;;;4.50;3.10;;;;;;;-144.01;100.00;62166.59;5070451;28;20048;-46
2021/01/09 09:07:04;;;;;;;3.90;3.50;;;;;;;-144.01;100.00;62166.59;5038313;28;20396;-55
2021/01/09 09:09:33;;;;;;;3.33;2.80;;;;;;;-144.01;100.00;62166.59;5049444;28;20056;-47
2021/01/09 09:12:01;;;;;;;4.03;3.40;;;;;;;-144.01;100.00;62166.59;5055065;28;20279;-48
2021/01/09 09:14:28;;;;;;;3.45;3.15;;;;;;;-144.01;100.00;62166.59;5036637;28;20449;-47
2021/01/09 09:17:00;;;;;;;3.05;2.75;;;;;;;-144.01;100.00;62166.59;5035386;28;20034;-50
2021/01/09 09:19:27;;;;;;;3.58;3.10;;;;;;;-144.01;100.00;62166.59;5054849;28;20044;-48
2021/01/09 09:21:59;;;;;;;3.63;3.30;;;;;;;-144.01;100.00;62166.59;5056265;28;20069;-48
2021/01/09 09:24:45;;;;;;;4.25;3.85;;;;;;;-144.01;100.00;62166.59;5075183;28;20060;-50
2021/01/09 09:27:21;;;;;;;4.32;3.45;;;;;;;-144.01;100.00;62166.59;5072705;28;20052;-45
2021/01/09 09:29:49;;;;;;;4.30;3.80;;;;;;;-144.01;100.00;62166.59;5061611;28;20052;-46
2021/01/09 09:32:26;;;;;;;6.53;4.60;;;;;;;-144.01;100.00;62166.59;5037458;28;20052;-46
2021/01/09 09:34:54;;;;;;;6.18;4.85;;;;;;;-144.01;100.00;62166.59;5054832;28;20411;-50
2021/01/09 09:37:21;;;;;;;5.38;4.65;;;;;;;-144.01;100.00;62166.59;5056188;28;20055;-60
2021/01/09 09:39:48;;;;;;;5.57;5.03;;;;;;;-144.01;100.00;62166.59;5056701;28;20367;-50
2021/01/09 09:42:26;;;;;;;3.58;3.28;;;;;;;-144.01;100.00;62166.59;5070598;28;20052;-44
2021/01/09 09:44:53;;;;;;;5.22;3.60;;;;;;;-144.01;100.00;62166.59;5064780;28;20059;-50
2021/01/09 09:47:25;;;;;;;4.15;3.47;;;;;;;-144.01;100.00;62166.59;5054612;28;20359;-49
2021/01/09 09:49:52;;;;;;;3.33;3.03;;;;;;;-144.01;100.00;62166.59;5070415;28;20044;-48
2021/01/09 09:52:20;;;;;;;6.07;3.70;;;;;;;-144.01;100.00;62166.59;5064816;28;20064;-48
2021/01/09 09:55:01;;;;;;;4.40;3.22;;;;;;;-144.01;100.00;62166.59;5068420;28;20486;-49
2021/01/09 09:57:28;;;;;;;4.65;3.72;;;;;;;-144.01;100.00;62166.59;5074384;28;20052;-47
2021/01/09 10:00:22;;;;;;;4.65;3.92;;;;;;;-144.01;100.00;62166.59;5074179;28;20048;-48
2021/01/09 10:02:56;;;;;;;7.68;3.95;;;;;;;-144.01;100.00;62166.59;5052184;28;20479;-48
2021/01/09 10:05:24;;;;;;;4.05;3.53;;;;;;;-144.01;100.00;62166.59;5054293;28;20045;-48
2021/01/09 10:08:07;;;;;;;4.03;3.55;;;;;;;-144.01;100.00;62166.59;5054224;28;20037;-49
2021/01/09 10:10:35;;;;;;;4.57;3.50;;;;;;;-144.01;100.00;62166.59;5054403;28;20049;-48
2021/01/09 10:13:02;;;;;;;3.72;3.40;;;;;;;-144.01;100.00;62166.59;5054147;28;20063;-47
2021/01/09 10:15:29;;;;;;;4.72;3.78;;;;;;;-144.01;100.00;62166.59;5054285;28;20053;-51
2021/01/09 10:17:59;;;;;;;5.38;3.80;;;;;;;-144.01;100.00;62166.59;5054082;28;20059;-49
2021/01/09 10:20:26;;;;;;;4.68;4.03;;;;;;;-144.01;100.00;62166.59;5073882;28;20054;-51
2021/01/09 10:22:53;;;;;;;5.05;3.95;;;;;;;-144.01;100.00;62166.59;5065894;28;20087;-48
2021/01/09 10:25:20;;;;;;;4.60;4.15;;;;;;;-144.01;100.00;62166.59;5053941;28;20083;-49
2021/01/09 10:27:51;;;;;;;4.85;4.35;;;;;;;-144.01;100.00;62166.59;5062826;28;20449;-48
2021/01/09 10:30:19;;;;;;;4.75;4.22;;;;;;;-144.01;100.00;62166.59;5058599;28;20052;-48
2021/01/09 10:32:46;;;;;;;5.22;4.65;;;;;;;-144.01;100.00;62166.59;5036498;28;20463;-50
2021/01/09 10:35:13;;;;;;;5.30;4.63;;;;;;;-144.01;100.00;62166.59;5053803;28;20048;-50
2021/01/09 10:37:41;;;;;;;5.95;4.15;;;;;;;-144.01;100.00;62166.59;5053899;28;20053;-48
2021/01/09 10:40:08;;;;;;;4.95;4.18;;;;;;;-144.01;100.00;62166.59;5070352;28;20056;-50
2021/01/09 10:42:35;;;;;;;6.97;4.50;;;;;;;-144.01;100.00;62166.59;5073842;28;20052;-51
2021/01/09 10:45:03;;;;;;;5.38;4.88;;;;;;;-144.01;100.00;62166.59;5073848;28;20059;-49
2021/01/09 10:47:30;;;;;;;6.57;4.45;;;;;;;-144.01;100.00;62166.59;5073810;28;20047;-49
2021/01/09 10:49:57;;;;;;;5.88;4.60;;;;;;;-144.01;100.00;62166.59;5073521;28;20056;-48
2021/01/09 10:52:25;;;;;;;4.97;4.47;;;;;;;-144.01;100.00;62166.59;5072677;28;20036;-52
2021/01/09 10:54:52;;;;;;;5.50;4.68;;;;;;;-144.01;100.00;62166.59;5071995;28;20584;-50
2021/01/09 10:57:19;;;;;;;4.70;4.20;;;;;;;-144.01;100.00;62166.59;5073095;28;20765;-45
2021/01/09 10:59:46;;;;;;;6.70;4.30;;;;;;;-144.01;100.00;62166.59;5073365;28;20343;-48
2021/01/09 11:02:13;;;;;;;5.38;4.88;;;;;;;-144.01;100.00;62166.59;5073842;28;20049;-53
2021/01/09 11:04:42;;;;;;;7.03;5.57;;;;;;;-144.01;100.00;62166.59;5075254;28;20055;-58
2021/01/09 11:07:09;;;;;;;9.00;7.30;;;;;;;-144.01;100.00;62166.59;5075349;28;20040;-50
2021/01/09 11:09:36;;;;;;;9.25;6.13;;;;;;;-144.01;100.00;62166.59;5068219;28;20057;-54
2021/01/09 11:12:04;;;;;;;8.82;7.30;;;;;;;-144.01;100.00;62166.59;5058008;28;20055;-53
2021/01/09 11:14:31;;;;;;;8.70;7.18;;;;;;;-144.01;100.00;62166.59;5058101;28;20467;-53
2021/01/09 11:16:59;;;;;;;11.85;8.60;;;;;;;-144.01;100.00;62166.59;5057707;28;20052;-64
2021/01/09 11:19:27;;;;;;;11.35;8.82;;;;;;;-144.01;100.00;62166.59;5067444;28;20056;-53